Time;durP1;ratioP1;P1;durP2;ratioP2;P2;SDS_P1;SDS_P2;PMS_P1;PMS_P2;Temp;Humidity;BMP_temperature;BMP_pressure;BME280_temperature;BME280_humidity;BME280_pressure;Samples;Min_cycle;Max_cycle;Signal;HPM_P1;HPM_P2
2021/10/06 00:02:08;;;;;;;5.57;5.07;;;12.20;99.90;;;;;;5072531;28;20668;-70
2021/10/06 00:04:36;;;;;;;5.67;5.13;;;12.20;99.90;;;;;;5072720;28;20208;-71
2021/10/06 00:07:04;;;;;;;6.30;5.70;;;12.30;99.90;;;;;;5072922;28;20228;-70
2021/10/06 00:09:34;;;;;;;5.93;5.43;;;12.30;99.90;;;;;;5072763;28;20197;-69
2021/10/06 00:12:02;;;;;;;6.20;5.40;;;12.30;99.90;;;;;;5072850;28;20244;-71
2021/10/06 00:14:30;;;;;;;6.47;5.40;;;12.40;99.90;;;;;;5072775;28;20707;-70
2021/10/06 00:16:59;;;;;;;6.23;5.17;;;12.40;99.90;;;;;;5072842;28;20201;-70
2021/10/06 00:19:26;;;;;;;6.13;5.53;;;12.50;99.90;;;;;;5072511;28;20235;-69
2021/10/06 00:21:56;;;;;;;5.63;5.03;;;12.50;99.90;;;;;;5072895;28;20250;-70
2021/10/06 00:24:24;;;;;;;5.73;5.10;;;12.50;99.90;;;;;;5072158;28;20652;-68
2021/10/06 00:26:53;;;;;;;8.27;6.00;;;12.60;99.90;;;;;;5072167;28;20607;-71
2021/10/06 00:29:21;;;;;;;5.53;4.90;;;12.60;99.90;;;;;;5072694;28;20235;-68
2021/10/06 00:31:49;;;;;;;5.85;5.28;;;12.70;99.90;;;;;;5072671;28;20197;-71
2021/10/06 00:34:19;;;;;;;5.73;5.23;;;12.70;99.90;;;;;;5073019;28;20197;-71
2021/10/06 00:36:47;;;;;;;6.67;5.53;;;12.70;99.90;;;;;;5072889;28;20652;-71
2021/10/06 00:39:15;;;;;;;5.80;5.20;;;12.70;99.90;;;;;;5073033;28;20305;-70
2021/10/06 00:41:43;;;;;;;7.32;5.53;;;12.70;99.90;;;;;;5072975;28;20226;-70
2021/10/06 00:44:17;;;;;;;6.43;5.30;;;12.70;99.90;;;;;;5072591;28;20288;-70
2021/10/06 00:46:45;;;;;;;7.35;5.55;;;12.70;99.90;;;;;;5072769;28;20267;-69
2021/10/06 00:49:14;;;;;;;6.32;5.70;;;12.70;99.90;;;;;;5072624;28;20771;-71
2021/10/06 00:51:43;;;;;;;6.60;5.53;;;12.70;99.90;;;;;;5072569;28;20206;-70
2021/10/06 00:54:11;;;;;;;6.70;5.17;;;12.70;99.90;;;;;;5072628;28;20205;-69
2021/10/06 00:56:39;;;;;;;6.27;5.67;;;12.70;99.90;;;;;;5072517;28;20197;-70
2021/10/06 00:59:07;;;;;;;7.77;5.33;;;12.70;99.90;;;;;;5072290;28;20204;-70
2021/10/06 01:01:36;;;;;;;5.67;4.83;;;12.70;99.90;;;;;;5072433;28;20287;-70
2021/10/06 01:04:05;;;;;;;5.95;5.35;;;12.70;99.90;;;;;;5072412;28;20292;-70
2021/10/06 01:06:34;;;;;;;6.00;5.40;;;12.60;99.90;;;;;;5072392;28;20288;-70
2021/10/06 01:09:03;;;;;;;6.88;5.57;;;12.60;99.90;;;;;;5072796;28;20589;-71
2021/10/06 01:11:31;;;;;;;5.97;5.30;;;12.60;99.90;;;;;;5072291;28;20211;-70
2021/10/06 01:13:59;;;;;;;8.27;5.43;;;12.60;99.90;;;;;;5072265;28;20625;-70
2021/10/06 01:16:27;;;;;;;6.17;5.57;;;12.70;99.90;;;;;;5072696;28;20297;-69
2021/10/06 01:18:56;;;;;;;5.60;5.10;;;12.70;99.90;;;;;;5072332;28;20239;-69
2021/10/06 01:21:25;;;;;;;4.30;3.90;;;12.80;99.90;;;;;;5072132;28;20311;-71
2021/10/06 01:23:54;;;;;;;4.68;4.20;;;13.00;99.90;;;;;;5072179;28;20295;-70
2021/10/06 01:26:22;;;;;;;4.18;3.75;;;13.00;99.90;;;;;;5072188;28;20288;-69
2021/10/06 01:28:52;;;;;;;3.33;2.93;;;13.10;99.90;;;;;;5072420;28;20292;-70
2021/10/06 01:31:25;;;;;;;4.30;2.78;;;13.20;99.90;;;;;;5072323;28;20609;-69
2021/10/06 01:33:53;;;;;;;2.47;2.28;;;13.20;99.90;;;;;;5072030;28;20185;-73
2021/10/06 01:36:21;;;;;;;4.17;2.70;;;13.20;99.90;;;;;;5072737;28;20205;-70
2021/10/06 01:38:50;;;;;;;3.13;2.50;;;13.20;99.90;;;;;;5075896;28;20296;-70
2021/10/06 01:41:18;;;;;;;3.20;2.22;;;13.20;99.90;;;;;;5075944;28;20323;-68
2021/10/06 01:43:46;;;;;;;3.22;2.30;;;13.10;99.90;;;;;;5075873;28;20200;-71
2021/10/06 01:46:16;;;;;;;2.50;1.83;;;13.10;99.90;;;;;;5075833;28;20240;-69
2021/10/06 01:48:44;;;;;;;3.03;2.03;;;13.00;99.90;;;;;;5075656;28;20205;-71
2021/10/06 01:51:12;;;;;;;2.03;1.83;;;13.00;99.90;;;;;;5075476;28;20262;-70
2021/10/06 01:53:41;;;;;;;2.67;1.60;;;13.00;99.90;;;;;;5075343;28;20205;-71
2021/10/06 01:56:10;;;;;;;2.27;1.60;;;13.00;99.90;;;;;;5074912;28;20295;-70
2021/10/06 01:58:38;;;;;;;3.92;1.40;;;13.00;99.90;;;;;;5075173;28;20291;-69
2021/10/06 02:01:06;;;;;;;2.95;1.70;;;13.00;99.90;;;;;;5074750;28;20221;-71
2021/10/06 02:03:34;;;;;;;3.13;1.70;;;13.00;99.90;;;;;;5075496;28;20212;-69
2021/10/06 02:06:01;;;;;;;2.13;1.63;;;12.90;99.90;;;;;;5075474;28;20197;-70
2021/10/06 02:08:29;;;;;;;2.30;1.88;;;12.90;99.90;;;;;;5075114;28;20205;-69
2021/10/06 02:10:57;;;;;;;2.33;2.10;;;12.80;99.90;;;;;;5075104;28;20287;-70
2021/10/06 02:13:26;;;;;;;2.10;1.90;;;12.80;99.90;;;;;;5075044;28;20291;-69
2021/10/06 02:15:54;;;;;;;2.20;2.00;;;12.80;99.90;;;;;;5075350;28;20311;-70
2021/10/06 02:18:22;;;;;;;2.70;1.90;;;12.80;99.90;;;;;;5075668;28;20296;-72
2021/10/06 02:20:50;;;;;;;2.63;2.00;;;12.70;99.90;;;;;;5075436;28;20312;-69
2021/10/06 02:23:18;;;;;;;2.70;2.13;;;12.60;99.90;;;;;;5075236;28;20625;-71
2021/10/06 02:25:46;;;;;;;2.53;1.80;;;12.50;99.90;;;;;;5075202;28;20208;-70
2021/10/06 02:28:14;;;;;;;1.70;1.60;;;12.50;99.90;;;;;;5078793;28;20211;-70
2021/10/06 02:30:44;;;;;;;2.23;2.03;;;12.40;99.90;;;;;;5078968;28;20188;-70
2021/10/06 02:33:12;;;;;;;1.60;1.50;;;12.40;99.90;;;;;;5079277;28;20215;-70
2021/10/06 02:35:40;;;;;;;3.83;1.73;;;12.40;99.90;;;;;;5079358;28;20234;-70
2021/10/06 02:38:08;;;;;;;1.80;1.50;;;12.30;99.90;;;;;;5077881;28;20301;-69
2021/10/06 02:40:36;;;;;;;1.63;1.53;;;12.30;99.90;;;;;;5075893;28;20231;-70
2021/10/06 02:43:04;;;;;;;1.70;1.60;;;12.30;99.90;;;;;;5075233;28;20630;-70
2021/10/06 02:45:32;;;;;;;1.53;1.43;;;12.20;99.90;;;;;;5076576;28;20620;-69
2021/10/06 02:48:01;;;;;;;3.67;1.50;;;12.20;99.90;;;;;;5076082;28;20402;-72
2021/10/06 02:50:29;;;;;;;2.57;1.10;;;12.10;99.90;;;;;;5076576;28;20287;-70
2021/10/06 02:52:57;;;;;;;1.50;1.20;;;12.10;99.90;;;;;;5078386;28;20287;-69
2021/10/06 02:55:25;;;;;;;2.93;1.13;;;12.00;99.90;;;;;;5074930;28;20215;-69
2021/10/06 02:57:53;;;;;;;2.07;1.10;;;12.00;99.90;;;;;;5074079;28;20236;-70
2021/10/06 03:00:21;;;;;;;2.77;1.20;;;11.90;99.90;;;;;;5075110;28;20207;-70
2021/10/06 03:02:49;;;;;;;2.13;1.07;;;11.90;99.90;;;;;;5076754;28;20196;-69
2021/10/06 03:05:18;;;;;;;3.17;1.10;;;12.00;99.90;;;;;;5075390;28;20284;-69
2021/10/06 03:07:46;;;;;;;3.07;1.40;;;11.90;99.90;;;;;;5074304;28;20300;-69
2021/10/06 03:10:14;;;;;;;2.20;1.20;;;11.80;99.90;;;;;;5074864;28;20291;-70
2021/10/06 03:12:42;;;;;;;2.13;0.90;;;11.70;99.90;;;;;;5074819;28;20264;-70
2021/10/06 03:15:11;;;;;;;4.60;1.43;;;11.70;99.90;;;;;;5074336;28;20205;-70
2021/10/06 03:17:39;;;;;;;1.57;1.00;;;11.60;99.90;;;;;;5074508;28;20291;-70
2021/10/06 03:20:09;;;;;;;2.43;1.10;;;11.50;99.90;;;;;;5074814;28;20205;-70
2021/10/06 03:22:38;;;;;;;2.33;1.07;;;11.50;99.90;;;;;;5075714;28;20304;-70
2021/10/06 03:25:07;;;;;;;3.10;1.10;;;11.50;99.90;;;;;;5075803;28;20291;-70
2021/10/06 03:27:35;;;;;;;2.30;1.00;;;11.40;99.90;;;;;;5075530;28;20209;-70
2021/10/06 03:30:04;;;;;;;2.50;1.20;;;11.40;99.90;;;;;;5076168;28;20578;-70
2021/10/06 03:32:32;;;;;;;1.50;1.00;;;11.40;99.90;;;;;;5074905;28;20196;-70
2021/10/06 03:35:00;;;;;;;2.37;1.20;;;11.30;99.90;;;;;;5073743;28;20296;-70
2021/10/06 03:37:28;;;;;;;1.80;1.10;;;11.30;99.90;;;;;;5073285;28;20207;-70
2021/10/06 03:39:57;;;;;;;3.90;1.10;;;11.20;99.90;;;;;;5073080;28;20200;-70
2021/10/06 03:42:25;;;;;;;1.80;1.00;;;11.10;99.90;;;;;;5072997;28;20316;-70
2021/10/06 03:44:52;;;;;;;1.40;1.10;;;11.10;99.90;;;;;;5073249;28;20200;-71
2021/10/06 03:47:20;;;;;;;1.37;1.20;;;11.10;99.90;;;;;;5072886;28;20275;-70
2021/10/06 03:49:48;;;;;;;2.07;1.20;;;11.00;99.90;;;;;;5073201;28;20313;-70
2021/10/06 03:52:16;;;;;;;4.07;1.30;;;11.00;99.90;;;;;;5072809;28;20756;-72
2021/10/06 03:54:44;;;;;;;3.77;1.50;;;10.90;99.90;;;;;;5072975;28;20202;-70
2021/10/06 03:57:13;;;;;;;1.70;1.30;;;10.80;99.90;;;;;;5072867;28;20204;-70
2021/10/06 03:59:41;;;;;;;4.63;1.20;;;10.80;99.90;;;;;;5072575;28;20747;-70
2021/10/06 04:02:09;;;;;;;1.20;1.10;;;10.80;99.90;;;;;;5072572;28;20235;-69
2021/10/06 04:04:36;;;;;;;3.77;1.30;;;10.70;99.90;;;;;;5073021;28;20291;-70
2021/10/06 04:07:04;;;;;;;2.93;1.10;;;10.70;99.90;;;;;;5072953;28;20205;-69
2021/10/06 04:09:32;;;;;;;2.27;1.40;;;10.60;99.90;;;;;;5072581;28;20268;-71
2021/10/06 04:12:01;;;;;;;3.10;1.40;;;10.60;99.90;;;;;;5072801;28;20696;-72
2021/10/06 04:14:30;;;;;;;4.70;1.50;;;10.60;99.90;;;;;;5072555;28;20299;-70
2021/10/06 04:16:58;;;;;;;3.10;1.60;;;10.60;99.90;;;;;;5072349;28;20675;-70
2021/10/06 04:19:26;;;;;;;1.53;1.40;;;10.60;99.90;;;;;;5072555;28;20228;-71
2021/10/06 04:21:53;;;;;;;1.67;1.33;;;10.60;99.90;;;;;;5072568;28;20216;-71
2021/10/06 04:24:21;;;;;;;4.27;1.20;;;10.70;99.90;;;;;;5072757;28;20292;-71
2021/10/06 04:26:49;;;;;;;2.33;1.60;;;10.70;99.90;;;;;;5072488;28;20650;-69
2021/10/06 04:29:17;;;;;;;1.63;1.20;;;10.70;99.90;;;;;;5072711;28;20296;-71
2021/10/06 04:31:46;;;;;;;5.73;1.80;;;10.70;99.90;;;;;;5072641;28;20231;-69
2021/10/06 04:34:14;;;;;;;2.17;1.70;;;10.70;99.90;;;;;;5072419;28;20299;-70
2021/10/06 04:36:42;;;;;;;3.73;1.73;;;10.70;99.90;;;;;;5072233;28;20287;-71
2021/10/06 04:39:10;;;;;;;4.30;1.80;;;10.70;99.90;;;;;;5072339;28;20633;-70
2021/10/06 04:41:38;;;;;;;3.40;1.80;;;10.70;99.90;;;;;;5072335;28;20288;-71
2021/10/06 04:44:05;;;;;;;1.93;1.40;;;10.60;99.90;;;;;;5072140;28;20732;-70
2021/10/06 04:46:33;;;;;;;4.00;1.80;;;10.60;99.90;;;;;;5072005;28;20204;-70
2021/10/06 04:49:03;;;;;;;1.60;1.40;;;10.60;99.90;;;;;;5072460;28;20523;-70
2021/10/06 04:51:31;;;;;;;3.20;1.60;;;10.60;99.90;;;;;;5072100;28;20236;-70
2021/10/06 04:53:59;;;;;;;1.60;1.10;;;10.60;99.90;;;;;;5072175;28;20196;-72
2021/10/06 04:56:26;;;;;;;2.50;1.30;;;10.50;99.90;;;;;;5072150;28;20624;-71
2021/10/06 04:58:54;;;;;;;2.70;1.20;;;10.40;99.90;;;;;;5071943;28;20200;-69
2021/10/06 05:01:22;;;;;;;2.93;1.20;;;10.40;99.90;;;;;;5072091;28;20215;-70
2021/10/06 05:03:50;;;;;;;1.97;1.47;;;10.30;99.90;;;;;;5072042;28;20203;-70
2021/10/06 05:06:19;;;;;;;4.20;1.43;;;10.30;99.90;;;;;;5071991;28;20295;-70
2021/10/06 05:08:48;;;;;;;1.57;1.43;;;10.30;99.90;;;;;;5072236;28;20299;-71
2021/10/06 05:11:15;;;;;;;4.33;1.53;;;10.20;99.90;;;;;;5072416;28;20207;-71
2021/10/06 05:13:43;;;;;;;2.70;1.30;;;10.20;99.90;;;;;;5075864;28;20243;-69
2021/10/06 05:16:11;;;;;;;2.63;1.53;;;10.20;99.90;;;;;;5075979;28;20240;-70
2021/10/06 05:18:39;;;;;;;3.10;1.70;;;10.20;99.90;;;;;;5075521;28;20713;-71
2021/10/06 05:21:07;;;;;;;3.50;2.17;;;10.20;99.90;;;;;;5075886;28;20247;-69
2021/10/06 05:23:36;;;;;;;3.43;1.67;;;10.20;99.90;;;;;;5075399;28;20319;-70
2021/10/06 05:26:04;;;;;;;3.40;1.67;;;10.20;99.90;;;;;;5075231;28;20197;-69
2021/10/06 05:28:32;;;;;;;4.63;1.77;;;10.20;99.90;;;;;;5075468;28;20577;-69
2021/10/06 05:30:59;;;;;;;2.40;1.80;;;10.30;99.90;;;;;;5075719;28;20200;-71
2021/10/06 05:33:27;;;;;;;2.70;1.43;;;10.30;99.90;;;;;;5075247;28;20300;-69
2021/10/06 05:35:55;;;;;;;3.43;1.90;;;10.40;99.90;;;;;;5074739;28;20283;-70
2021/10/06 05:38:23;;;;;;;7.03;2.67;;;10.40;99.90;;;;;;5075235;28;20232;-70
2021/10/06 05:40:52;;;;;;;4.27;1.57;;;10.50;99.90;;;;;;5075302;28;20206;-70
2021/10/06 05:43:20;;;;;;;2.50;1.83;;;10.50;99.90;;;;;;5074959;28;20684;-71
2021/10/06 05:45:48;;;;;;;4.07;1.60;;;10.60;99.90;;;;;;5075338;28;20291;-70
2021/10/06 05:48:16;;;;;;;2.30;1.40;;;10.60;99.90;;;;;;5075005;28;20275;-71
2021/10/06 05:50:44;;;;;;;1.87;1.43;;;10.70;99.90;;;;;;5075451;28;20209;-69
2021/10/06 05:53:12;;;;;;;3.87;1.67;;;10.80;99.90;;;;;;5075496;28;20283;-69
2021/10/06 05:55:40;;;;;;;3.33;1.73;;;10.90;99.90;;;;;;5075698;28;20291;-66
2021/10/06 05:58:11;;;;;;;2.57;1.57;;;11.00;99.90;;;;;;5075375;28;20550;-71
2021/10/06 06:00:38;;;;;;;3.77;1.63;;;11.00;99.90;;;;;;5075004;28;20200;-70
2021/10/06 06:03:09;;;;;;;5.60;2.63;;;11.10;99.90;;;;;;5074662;28;20244;-69
2021/10/06 06:05:39;;;;;;;5.07;1.63;;;11.10;99.90;;;;;;5074613;28;20712;-71
2021/10/06 06:08:07;;;;;;;2.57;1.30;;;11.20;99.90;;;;;;5075050;28;20228;-70
2021/10/06 06:10:35;;;;;;;2.43;1.50;;;11.20;99.90;;;;;;5073137;28;20283;-60
2021/10/06 06:13:04;;;;;;;4.50;1.57;;;11.20;99.90;;;;;;5074471;28;20228;-66
2021/10/06 06:15:33;;;;;;;1.80;1.30;;;11.20;99.90;;;;;;5074591;28;20212;-66
2021/10/06 06:18:02;;;;;;;3.03;1.80;;;11.20;99.90;;;;;;5074499;28;20287;-69
2021/10/06 06:20:30;;;;;;;3.43;1.73;;;11.20;99.90;;;;;;5074515;28;20287;-69
2021/10/06 06:22:58;;;;;;;2.90;1.47;;;11.30;99.90;;;;;;5073261;28;20228;-68
2021/10/06 06:25:27;;;;;;;2.33;1.70;;;11.30;99.90;;;;;;5074224;28;20648;-69
2021/10/06 06:27:55;;;;;;;2.23;1.53;;;11.30;99.90;;;;;;5074480;28;20215;-69
2021/10/06 06:30:23;;;;;;;3.60;1.73;;;11.40;99.90;;;;;;5074574;28;20630;-69
2021/10/06 06:32:52;;;;;;;2.93;1.50;;;11.40;99.90;;;;;;5074497;28;20196;-68
2021/10/06 06:35:20;;;;;;;4.33;1.60;;;11.40;99.90;;;;;;5074486;28;20239;-68
2021/10/06 06:37:48;;;;;;;6.23;1.60;;;11.50;99.90;;;;;;5074500;28;20204;-69
2021/10/06 06:40:16;;;;;;;5.60;1.73;;;11.60;99.90;;;;;;5073883;28;20735;-68
2021/10/06 06:42:44;;;;;;;3.73;1.37;;;11.70;99.90;;;;;;5073952;28;20304;-69
2021/10/06 06:45:12;;;;;;;6.27;1.67;;;11.80;99.90;;;;;;5074417;28;20234;-69
2021/10/06 06:47:41;;;;;;;5.37;1.50;;;11.90;99.90;;;;;;5074038;28;20595;-70
2021/10/06 06:50:12;;;;;;;1.70;1.20;;;12.00;99.90;;;;;;5074390;28;20209;-74
2021/10/06 06:52:40;;;;;;;3.20;1.40;;;12.10;99.90;;;;;;5073882;28;20280;-76
2021/10/06 06:55:08;;;;;;;3.07;1.37;;;12.20;99.90;;;;;;5074177;28;20586;-75
2021/10/06 06:57:36;;;;;;;2.60;1.40;;;12.30;99.90;;;;;;5074017;28;20658;-74
2021/10/06 07:00:05;;;;;;;2.80;1.20;;;12.30;99.90;;;;;;5073928;28;20223;-75
2021/10/06 07:02:33;;;;;;;3.50;1.47;;;12.40;99.90;;;;;;5073894;28;20239;-75
2021/10/06 07:05:02;;;;;;;3.90;1.43;;;12.40;99.90;;;;;;5073971;28;20516;-76
2021/10/06 07:07:31;;;;;;;2.25;1.52;;;12.50;99.90;;;;;;5073745;28;20608;-75
2021/10/06 07:10:00;;;;;;;5.07;1.60;;;12.60;99.90;;;;;;5073883;28;20357;-75
2021/10/06 07:12:27;;;;;;;2.55;1.30;;;12.70;99.90;;;;;;5073508;28;20204;-61
2021/10/06 07:14:55;;;;;;;3.22;1.42;;;12.70;99.90;;;;;;5073589;28;20239;-61
2021/10/06 07:17:24;;;;;;;2.90;1.60;;;12.80;99.90;;;;;;5073563;28;20310;-61
2021/10/06 07:19:51;;;;;;;2.23;1.20;;;12.90;99.90;;;;;;5073245;28;20529;-60
2021/10/06 07:22:20;;;;;;;1.75;1.30;;;12.90;99.90;;;;;;5073303;28;20291;-60
2021/10/06 07:24:49;;;;;;;2.80;1.20;;;12.80;99.90;;;;;;5073024;28;20719;-61
2021/10/06 07:27:17;;;;;;;3.10;1.48;;;12.70;99.90;;;;;;5072820;28;20200;-61
2021/10/06 07:29:45;;;;;;;3.77;1.50;;;12.60;99.90;;;;;;5072966;28;20759;-60
2021/10/06 07:32:13;;;;;;;3.28;1.42;;;12.50;99.90;;;;;;5073023;28;20295;-61
2021/10/06 07:34:41;;;;;;;2.10;1.30;;;12.50;99.90;;;;;;5072889;28;20214;-61
2021/10/06 07:37:09;;;;;;;3.30;1.50;;;12.40;99.90;;;;;;5073069;28;20299;-61
2021/10/06 07:39:37;;;;;;;3.10;1.67;;;12.40;99.90;;;;;;5073146;28;20204;-60
2021/10/06 07:42:06;;;;;;;2.23;1.53;;;12.30;99.90;;;;;;5072684;28;20203;-61
2021/10/06 07:44:34;;;;;;;5.87;1.97;;;12.30;99.90;;;;;;5072918;28;20217;-61
2021/10/06 07:47:02;;;;;;;3.37;1.63;;;12.40;99.90;;;;;;5072492;28;20627;-61
2021/10/06 07:49:30;;;;;;;2.37;1.57;;;12.40;99.90;;;;;;5072931;28;20247;-62
2021/10/06 07:51:59;;;;;;;1.77;1.33;;;12.30;99.90;;;;;;5072950;28;20235;-61
2021/10/06 07:54:27;;;;;;;4.50;1.80;;;12.30;99.90;;;;;;5073240;28;20236;-61
2021/10/06 07:56:55;;;;;;;3.70;1.73;;;12.40;99.90;;;;;;5072537;28;20600;-60
2021/10/06 07:59:24;;;;;;;2.97;1.70;;;12.40;99.90;;;;;;5072469;28;20295;-60
2021/10/06 08:01:52;;;;;;;3.23;1.37;;;12.50;99.90;;;;;;5072463;28;20287;-59
2021/10/06 08:04:20;;;;;;;3.53;1.60;;;12.40;99.90;;;;;;5072249;28;20224;-61
2021/10/06 08:06:48;;;;;;;4.20;1.77;;;12.50;99.90;;;;;;5073016;28;20208;-61
2021/10/06 08:09:18;;;;;;;3.20;1.70;;;12.50;99.90;;;;;;5072687;28;20712;-61
2021/10/06 08:11:46;;;;;;;2.20;1.80;;;12.50;99.90;;;;;;5072786;28;20236;-61
2021/10/06 08:14:14;;;;;;;3.03;1.70;;;12.60;99.90;;;;;;5072484;28;20287;-62
2021/10/06 08:16:43;;;;;;;3.40;1.60;;;12.80;99.90;;;;;;5072239;28;20660;-61
2021/10/06 08:19:11;;;;;;;2.90;1.47;;;13.10;99.90;;;;;;5071742;28;20204;-61
2021/10/06 08:21:39;;;;;;;3.55;2.17;;;13.30;99.90;;;;;;5072216;28;20304;-61
2021/10/06 08:24:07;;;;;;;2.90;1.53;;;13.50;99.90;;;;;;5072287;28;20615;-62
2021/10/06 08:26:35;;;;;;;4.60;1.55;;;13.60;99.90;;;;;;5072333;28;20317;-61
2021/10/06 08:29:03;;;;;;;3.75;1.33;;;13.60;99.90;;;;;;5071909;28;20197;-61
2021/10/06 08:31:31;;;;;;;3.45;1.77;;;13.80;99.90;;;;;;5072206;28;20291;-62
2021/10/06 08:34:00;;;;;;;2.95;1.55;;;13.90;99.90;;;;;;5072084;28;20239;-60
2021/10/06 08:36:28;;;;;;;1.63;1.30;;;14.00;99.90;;;;;;5072467;28;20247;-61
2021/10/06 08:38:56;;;;;;;5.25;1.35;;;14.20;99.90;;;;;;5072622;28;20308;-62
2021/10/06 08:41:24;;;;;;;3.97;1.40;;;14.40;99.90;;;;;;5072305;28;20229;-60
2021/10/06 08:43:52;;;;;;;3.75;1.52;;;14.70;99.90;;;;;;5072200;28;20319;-61
2021/10/06 08:46:23;;;;;;;4.38;1.52;;;15.20;99.90;;;;;;5072855;28;20203;-62
2021/10/06 08:48:52;;;;;;;2.00;1.45;;;15.50;99.90;;;;;;5076119;28;20670;-61
2021/10/06 08:51:22;;;;;;;5.18;1.80;;;15.60;99.90;;;;;;5076435;28;20207;-60
2021/10/06 08:53:51;;;;;;;3.83;1.20;;;15.90;99.90;;;;;;5076262;28;20228;-60
2021/10/06 08:56:21;;;;;;;5.88;1.52;;;15.80;99.90;;;;;;5075357;28;20693;-61
2021/10/06 08:58:49;;;;;;;1.40;1.13;;;15.90;99.90;;;;;;5075818;28;20264;-61
2021/10/06 09:01:24;;;;;;;2.97;1.40;;;16.00;99.90;;;;;;5076166;28;20200;-60
2021/10/06 09:03:57;;;;;;;1.50;1.17;;;16.00;99.90;;;;;;5075781;28;20761;-62
2021/10/06 09:06:36;;;;;;;1.83;1.20;;;15.90;99.90;;;;;;5075842;28;20266;-61
2021/10/06 09:09:16;;;;;;;1.25;1.08;;;15.60;99.90;;;;;;5075835;28;20185;-60
2021/10/06 09:11:46;;;;;;;2.13;1.20;;;15.30;99.90;;;;;;5075837;28;20184;-61
2021/10/06 09:14:14;;;;;;;2.60;1.30;;;15.10;99.90;;;;;;5075674;28;20203;-60
2021/10/06 09:16:42;;;;;;;2.10;1.08;;;15.00;99.90;;;;;;5075734;28;20285;-60
2021/10/06 09:19:11;;;;;;;3.40;1.05;;;15.00;99.90;;;;;;5075758;28;20208;-61
2021/10/06 09:24:58;;;;;;;2.05;1.00;;;15.10;99.90;;;;;;5089911;27;20548;-61
2021/10/06 09:27:29;;;;;;;3.00;1.10;;;15.00;99.90;;;;;;5089772;28;20184;-60
2021/10/06 09:29:58;;;;;;;2.75;1.00;;;14.90;99.90;;;;;;5089886;28;20227;-60
2021/10/06 09:32:29;;;;;;;2.33;0.93;;;14.80;99.90;;;;;;5089863;28;20314;-60
2021/10/06 09:35:13;;;;;;;2.08;1.00;;;14.80;99.90;;;;;;5090135;28;20184;-61
2021/10/06 09:37:44;;;;;;;4.13;1.02;;;14.90;99.90;;;;;;5089730;28;20188;-61
2021/10/06 09:40:15;;;;;;;2.67;1.25;;;15.10;99.90;;;;;;5089783;28;20212;-62
2021/10/06 09:42:45;;;;;;;2.28;1.20;;;15.20;99.90;;;;;;5089411;28;20304;-60
2021/10/06 09:45:21;;;;;;;2.75;1.02;;;15.40;99.90;;;;;;5089880;28;20290;-62
2021/10/06 09:48:10;;;;;;;2.80;1.08;;;15.50;99.90;;;;;;5089801;28;20219;-61
2021/10/06 09:50:41;;;;;;;1.40;1.00;;;15.60;99.90;;;;;;5089753;28;20280;-60
2021/10/06 09:53:12;;;;;;;1.45;1.10;;;15.70;99.90;;;;;;5089517;28;20187;-60
2021/10/06 09:55:44;;;;;;;2.92;1.00;;;15.70;99.90;;;;;;5089262;28;20216;-60
2021/10/06 09:58:13;;;;;;;1.38;1.10;;;15.80;99.90;;;;;;5089521;28;20181;-59
2021/10/06 10:00:42;;;;;;;3.17;1.23;;;16.00;99.90;;;;;;5089476;28;20204;-60
2021/10/06 10:03:11;;;;;;;2.78;1.23;;;16.10;99.90;;;;;;5089253;28;20608;-60
2021/10/06 10:05:40;;;;;;;1.63;0.80;;;16.10;99.90;;;;;;5089492;28;20261;-61
2021/10/06 10:08:09;;;;;;;2.00;1.10;;;16.20;99.90;;;;;;5089394;28;20238;-62
2021/10/06 10:10:38;;;;;;;2.25;1.10;;;16.10;99.90;;;;;;5089160;28;20258;-61
2021/10/06 10:13:08;;;;;;;1.90;1.08;;;16.10;99.90;;;;;;5089126;28;20664;-60
2021/10/06 10:15:35;;;;;;;2.53;1.02;;;16.20;99.90;;;;;;5089624;28;20292;-60
2021/10/06 10:18:06;;;;;;;1.65;1.08;;;16.10;99.90;;;;;;5089304;28;20204;-61
2021/10/06 10:20:41;;;;;;;3.95;1.10;;;15.90;99.90;;;;;;5089215;28;20216;-60
2021/10/06 10:23:12;;;;;;;1.15;1.02;;;15.90;99.90;;;;;;5088703;28;20774;-60
2021/10/06 10:25:43;;;;;;;1.50;1.00;;;15.90;99.90;;;;;;5088838;28;20220;-62
2021/10/06 10:28:14;;;;;;;3.42;1.00;;;16.00;99.90;;;;;;5088869;28;20271;-61
2021/10/06 10:31:00;;;;;;;1.42;0.90;;;15.90;99.90;;;;;;5088951;28;20271;-60
2021/10/06 10:33:39;;;;;;;1.98;1.10;;;16.00;99.90;;;;;;5088932;28;20367;-61
2021/10/06 10:36:46;;;;;;;0.98;0.88;;;16.00;99.90;;;;;;5074609;28;20195;-61
2021/10/06 10:39:56;;;;;;;2.75;1.10;;;15.90;99.90;;;;;;5075051;28;20715;-61
2021/10/06 10:42:58;;;;;;;1.63;1.00;;;16.00;99.90;;;;;;5074742;28;20600;-59
2021/10/06 10:45:47;;;;;;;1.85;1.23;;;16.10;99.90;;;;;;5074684;28;20496;-60
2021/10/06 10:48:17;;;;;;;3.10;1.10;;;16.30;99.90;;;;;;5075106;28;20292;-62
2021/10/06 10:51:11;;;;;;;1.98;1.20;;;16.20;99.90;;;;;;5074990;28;20181;-60
2021/10/06 10:53:59;;;;;;;2.95;1.23;;;16.20;99.90;;;;;;5074621;28;20196;-61
2021/10/06 10:56:54;;;;;;;2.83;1.80;;;16.00;99.90;;;;;;5074495;28;20650;-60
2021/10/06 10:59:23;;;;;;;2.15;1.20;;;15.80;99.90;;;;;;5074918;28;20276;-60
2021/10/06 11:01:55;;;;;;;2.05;1.00;;;15.70;99.90;;;;;;5074570;28;20228;-61
2021/10/06 11:04:27;;;;;;;2.00;1.02;;;15.60;99.90;;;;;;5074466;28;20699;-61
2021/10/06 11:06:57;;;;;;;2.05;1.05;;;15.50;99.90;;;;;;5074620;28;20181;-62
2021/10/06 11:09:40;;;;;;;1.92;0.90;;;15.50;99.90;;;;;;5074654;28;20201;-61
2021/10/06 11:12:27;;;;;;;2.17;1.20;;;15.60;99.90;;;;;;5073997;28;20181;-61
2021/10/06 11:15:22;;;;;;;2.97;1.20;;;15.80;99.90;;;;;;5074564;28;20192;-60
2021/10/06 11:18:28;;;;;;;2.45;0.90;;;16.00;99.90;;;;;;5074289;28;20287;-61
2021/10/06 11:21:05;;;;;;;2.38;1.00;;;16.20;99.90;;;;;;5074567;28;20299;-62
2021/10/06 11:23:44;;;;;;;2.63;1.10;;;16.40;99.90;;;;;;5074015;28;20232;-61
2021/10/06 11:26:14;;;;;;;1.83;1.20;;;16.70;99.90;;;;;;5074465;28;20184;-61
2021/10/06 11:28:43;;;;;;;2.55;1.17;;;16.70;99.90;;;;;;5074098;28;20207;-60
2021/10/06 11:31:12;;;;;;;2.92;1.10;;;16.60;99.90;;;;;;5074244;28;20207;-60
2021/10/06 11:33:42;;;;;;;2.75;1.25;;;16.30;99.90;;;;;;5074287;28;20299;-60
2021/10/06 11:36:15;;;;;;;2.58;1.50;;;16.30;99.90;;;;;;5074228;28;20258;-61
2021/10/06 11:38:46;;;;;;;2.05;1.00;;;16.20;99.90;;;;;;5074193;28;20217;-61
2021/10/06 11:41:14;;;;;;;2.42;1.20;;;16.20;99.90;;;;;;5073993;28;20638;-60
2021/10/06 11:43:45;;;;;;;2.75;1.30;;;16.10;99.90;;;;;;5073837;28;20255;-60
2021/10/06 11:46:16;;;;;;;3.13;1.33;;;16.20;99.90;;;;;;5072842;28;20228;-61
2021/10/06 11:48:48;;;;;;;1.38;1.05;;;16.10;99.90;;;;;;5073935;28;20193;-61
2021/10/06 11:51:16;;;;;;;1.73;1.13;;;16.10;99.90;;;;;;5073666;28;20607;-60
2021/10/06 11:53:46;;;;;;;2.30;1.23;;;16.20;99.90;;;;;;5073460;28;20672;-60
2021/10/06 11:56:24;;;;;;;4.15;1.20;;;16.20;99.90;;;;;;5073744;28;20551;-61
2021/10/06 11:58:53;;;;;;;2.10;1.30;;;16.10;99.90;;;;;;5073506;28;20254;-61
2021/10/06 12:01:21;;;;;;;2.80;1.33;;;16.30;99.90;;;;;;5073313;28;20692;-61
2021/10/06 12:03:50;;;;;;;3.63;1.50;;;16.50;99.90;;;;;;5073269;28;20247;-59
2021/10/06 12:06:23;;;;;;;2.08;1.30;;;16.80;99.90;;;;;;5073518;28;20229;-60
2021/10/06 12:08:51;;;;;;;4.55;1.42;;;17.10;99.90;;;;;;5073363;28;20240;-60
2021/10/06 12:11:19;;;;;;;2.80;1.10;;;17.00;99.90;;;;;;5073649;28;20200;-60
2021/10/06 12:13:47;;;;;;;3.30;1.25;;;17.00;99.90;;;;;;5073429;28;20311;-60
2021/10/06 12:16:27;;;;;;;1.90;1.00;;;17.10;99.90;;;;;;5073376;28;20296;-59
2021/10/06 12:18:59;;;;;;;2.60;1.00;;;17.10;99.90;;;;;;5073349;28;20218;-61
2021/10/06 12:21:29;;;;;;;1.63;1.10;;;17.10;99.90;;;;;;5072936;28;20188;-60
2021/10/06 12:24:00;;;;;;;2.13;1.05;;;17.10;99.90;;;;;;5072798;28;20576;-61
2021/10/06 12:26:33;;;;;;;2.08;1.20;;;17.00;99.90;;;;;;5072784;28;20627;-59
2021/10/06 12:29:05;;;;;;;3.47;1.00;;;17.10;99.90;;;;;;5073031;28;20272;-61
2021/10/06 12:31:36;;;;;;;3.95;1.50;;;17.00;99.90;;;;;;5073084;28;20185;-61
2021/10/06 12:34:11;;;;;;;1.98;1.50;;;17.00;99.90;;;;;;5072996;28;20181;-61
2021/10/06 12:36:47;;;;;;;2.25;1.10;;;16.90;99.90;;;;;;5073079;28;20184;-61
2021/10/06 12:39:18;;;;;;;1.17;0.80;;;16.90;99.90;;;;;;5072981;28;20185;-60
2021/10/06 12:41:52;;;;;;;2.70;1.00;;;17.00;99.90;;;;;;5072743;28;20195;-60
2021/10/06 12:44:24;;;;;;;1.52;1.02;;;17.00;99.90;;;;;;5072913;28;20208;-60
2021/10/06 12:46:52;;;;;;;2.97;1.23;;;17.00;99.90;;;;;;5072729;28;20590;-60
2021/10/06 12:49:22;;;;;;;3.65;1.10;;;17.00;99.90;;;;;;5072789;28;20295;-61
2021/10/06 12:51:56;;;;;;;4.60;1.10;;;17.10;99.90;;;;;;5072730;28;20189;-60
2021/10/06 12:54:27;;;;;;;2.30;0.80;;;17.20;99.90;;;;;;5072767;28;20263;-60
2021/10/06 12:56:57;;;;;;;5.00;1.00;;;17.30;99.90;;;;;;5072235;28;20208;-60
2021/10/06 12:59:30;;;;;;;2.45;1.00;;;17.40;99.90;;;;;;5072674;28;20203;-61
2021/10/06 13:01:59;;;;;;;1.88;1.00;;;17.30;99.90;;;;;;5072436;28;20280;-61
2021/10/06 13:04:28;;;;;;;1.23;0.80;;;17.20;99.90;;;;;;5072715;28;20227;-59
2021/10/06 13:07:01;;;;;;;1.65;1.10;;;17.10;99.90;;;;;;5072417;28;20191;-60